createdAt,value
2017-09-05T00:00:59.013Z,9.47
2017-09-05T00:03:26.570Z,10.20
2017-09-05T00:05:54.843Z,10.13
2017-09-05T00:11:41.819Z,11.02
2017-09-05T00:14:14.987Z,11.30
2017-09-05T00:16:44.983Z,9.87
2017-09-05T00:19:16.286Z,14.50
2017-09-05T00:21:44.334Z,14.10
2017-09-05T00:24:11.844Z,10.00
2017-09-05T00:26:40.931Z,10.98
2017-09-05T00:29:08.444Z,8.73
2017-09-05T00:31:35.947Z,13.10
2017-09-05T00:34:03.450Z,12.90
2017-09-05T00:36:31.299Z,13.03
2017-09-05T00:38:58.998Z,9.20
2017-09-05T00:41:26.500Z,10.48
2017-09-05T00:43:54.011Z,10.80
2017-09-05T00:46:21.507Z,10.57
2017-09-05T00:48:52.923Z,11.60
2017-09-05T00:51:20.419Z,9.47
2017-09-05T00:53:49.356Z,12.02
2017-09-05T00:56:16.867Z,13.43
2017-09-05T00:58:44.875Z,10.10
2017-09-05T01:01:12.383Z,10.65
2017-09-05T01:03:39.879Z,10.67
2017-09-05T01:06:07.903Z,11.75
2017-09-05T01:08:35.408Z,8.80
2017-09-05T01:11:02.956Z,8.97
2017-09-05T01:13:30.468Z,9.73
2017-09-05T01:15:57.987Z,13.33
2017-09-05T01:18:25.503Z,12.80
2017-09-05T01:20:53.003Z,21.00
2017-09-05T01:23:21.412Z,11.65
2017-09-05T01:25:49.064Z,12.48
2017-09-05T01:28:16.667Z,17.58
2017-09-05T01:30:44.168Z,14.18
2017-09-05T01:33:11.663Z,14.90
2017-09-05T01:35:39.159Z,11.75
2017-09-05T01:38:06.767Z,9.88
2017-09-05T01:40:35.107Z,13.48
2017-09-05T01:43:02.707Z,12.23
2017-09-05T01:45:30.248Z,13.95
2017-09-05T01:47:57.746Z,17.45
2017-09-05T01:50:25.252Z,15.63
2017-09-05T01:52:52.744Z,13.23
2017-09-05T01:55:20.327Z,12.20
2017-09-05T01:57:48.755Z,12.45
2017-09-05T02:00:16.253Z,12.90
2017-09-05T02:02:43.967Z,13.77
2017-09-05T02:05:11.467Z,15.50
2017-09-05T02:07:39.217Z,13.40
2017-09-05T02:10:07.479Z,15.63
2017-09-05T02:12:34.991Z,14.60
2017-09-05T02:15:02.515Z,18.83
2017-09-05T02:17:30.019Z,18.13
2017-09-05T02:20:01.464Z,18.67
2017-09-05T02:22:28.971Z,14.27
2017-09-05T02:24:57.547Z,17.90
2017-09-05T02:27:25.272Z,16.80
2017-09-05T02:29:52.767Z,15.20
2017-09-05T02:32:20.280Z,12.70
2017-09-05T02:34:47.783Z,14.43
2017-09-05T02:37:16.220Z,14.17
2017-09-05T02:39:43.724Z,10.48
2017-09-05T02:42:11.233Z,21.70
2017-09-05T02:44:38.772Z,16.20
2017-09-05T02:47:06.309Z,19.33
2017-09-05T02:49:33.815Z,16.93
2017-09-05T02:52:01.682Z,20.40
2017-09-05T02:54:29.932Z,16.65
2017-09-05T02:56:57.582Z,12.85
2017-09-05T02:59:25.336Z,14.77
2017-09-05T03:01:52.872Z,16.30
2017-09-05T03:04:20.489Z,16.95
2017-09-05T03:06:48.936Z,14.85
2017-09-05T03:09:16.494Z,15.40
2017-09-05T03:11:44.006Z,15.70
2017-09-05T03:14:11.536Z,13.33
2017-09-05T03:16:39.051Z,19.63
2017-09-05T03:19:06.556Z,13.40
2017-09-05T03:21:34.056Z,16.57
2017-09-05T03:24:02.479Z,14.44
2017-09-05T03:26:29.987Z,16.13
2017-09-05T03:28:57.519Z,14.67
2017-09-05T03:31:25.027Z,18.90
2017-09-05T03:33:52.535Z,14.80
2017-09-05T03:36:20.250Z,24.20
2017-09-05T03:38:47.763Z,23.90
2017-09-05T03:41:16.187Z,16.20
2017-09-05T03:43:43.700Z,17.80
2017-09-05T03:46:11.200Z,26.10
2017-09-05T03:48:38.710Z,13.90
2017-09-05T03:51:09.215Z,15.43
2017-09-05T03:53:36.763Z,16.60
2017-09-05T03:56:04.262Z,15.93
2017-09-05T03:58:31.895Z,15.43
2017-09-05T04:01:00.003Z,16.50
2017-09-05T04:03:27.525Z,13.30
2017-09-05T04:05:55.231Z,15.48
2017-09-05T04:08:22.731Z,15.50
2017-09-05T04:10:50.235Z,16.73
2017-09-05T04:13:17.791Z,17.73
2017-09-05T04:15:45.335Z,18.33
2017-09-05T04:18:13.440Z,14.40
2017-09-05T04:20:40.940Z,15.23
2017-09-05T04:23:12.448Z,16.17
2017-09-05T04:25:39.963Z,14.63
2017-09-05T04:28:08.295Z,15.80
2017-09-05T04:30:35.800Z,16.93
2017-09-05T04:33:03.360Z,15.47
2017-09-05T04:35:30.875Z,15.75
2017-09-05T04:37:58.376Z,24.08
2017-09-05T04:40:25.887Z,21.70
2017-09-05T04:42:54.164Z,15.80
2017-09-05T04:45:21.663Z,12.57
2017-09-05T04:47:49.160Z,13.10
2017-09-05T04:50:17.491Z,13.63
2017-09-05T04:52:49.540Z,13.37
2017-09-05T04:55:17.059Z,14.20
2017-09-05T04:57:44.687Z,17.03
2017-09-05T05:00:12.184Z,16.85
2017-09-05T05:02:42.213Z,12.27
2017-09-05T05:05:09.723Z,12.88
2017-09-05T05:07:40.119Z,13.67
2017-09-05T05:10:07.664Z,11.13
2017-09-05T05:12:36.875Z,12.37
2017-09-05T05:15:04.391Z,10.90
2017-09-05T05:17:31.919Z,10.52
2017-09-05T05:19:59.863Z,12.87
2017-09-05T05:22:31.403Z,9.20
2017-09-05T05:24:58.903Z,19.53
2017-09-05T05:27:26.787Z,8.20
2017-09-05T05:29:54.514Z,13.50
2017-09-05T05:32:22.016Z,11.23
2017-09-05T05:34:50.499Z,10.20
2017-09-05T05:37:18.183Z,10.27
2017-09-05T05:39:45.695Z,7.60
2017-09-05T05:42:13.235Z,26.40
2017-09-05T05:44:40.767Z,9.30
2017-09-05T05:47:08.275Z,11.87
2017-09-05T05:49:35.788Z,11.20
2017-09-05T05:52:04.256Z,13.82
2017-09-05T05:54:32.871Z,11.70
2017-09-05T05:57:00.583Z,12.77
2017-09-05T05:59:28.831Z,12.20
2017-09-05T06:01:56.419Z,13.77
2017-09-05T06:04:24.000Z,12.17
2017-09-05T06:06:51.543Z,16.43
2017-09-05T06:09:19.099Z,16.77
2017-09-05T06:11:46.616Z,12.90
2017-09-05T06:14:14.151Z,14.17
2017-09-05T06:16:43.419Z,17.77
2017-09-05T06:19:10.939Z,22.73
2017-09-05T06:21:38.460Z,16.80
2017-09-05T06:24:07.801Z,16.50
2017-09-05T06:26:35.303Z,21.90
2017-09-05T06:29:02.815Z,19.70
2017-09-05T06:31:30.331Z,17.77
2017-09-05T06:33:58.664Z,17.70
2017-09-05T06:36:26.711Z,14.27
2017-09-05T06:38:54.212Z,13.80
2017-09-05T06:41:21.718Z,16.37
2017-09-05T06:43:49.236Z,14.63
2017-09-05T06:46:16.740Z,15.20
2017-09-05T06:48:44.254Z,14.18
2017-09-05T06:51:11.756Z,14.30
2017-09-05T06:53:40.276Z,15.45
2017-09-05T06:56:07.811Z,17.70
2017-09-05T06:58:35.324Z,12.90
2017-09-05T07:01:03.110Z,13.85
2017-09-05T07:03:31.127Z,14.00
2017-09-05T07:05:59.402Z,14.20
2017-09-05T07:08:28.221Z,18.50
2017-09-05T07:10:55.714Z,15.33
2017-09-05T07:13:24.035Z,18.40
2017-09-05T07:15:51.542Z,11.70
2017-09-05T07:18:19.071Z,18.13
2017-09-05T07:20:48.347Z,15.83
2017-09-05T07:23:15.851Z,13.80
2017-09-05T07:25:43.399Z,15.23
2017-09-05T07:28:10.899Z,15.33
2017-09-05T07:30:38.412Z,14.77
2017-09-05T07:33:06.128Z,13.02
2017-09-05T07:35:33.775Z,14.40
2017-09-05T07:38:02.649Z,17.37
2017-09-05T07:40:30.184Z,16.50
2017-09-05T07:42:58.468Z,15.55
2017-09-05T07:45:26.771Z,12.77
2017-09-05T07:47:54.283Z,16.30
2017-09-05T07:50:21.795Z,19.13
2017-09-05T07:52:49.365Z,14.90
2017-09-05T07:55:16.884Z,13.48
2017-09-05T07:57:44.392Z,11.90
2017-09-05T08:00:11.902Z,12.80
2017-09-05T08:02:39.651Z,13.45
2017-09-05T08:05:07.400Z,11.70
2017-09-05T08:07:34.911Z,12.88
2017-09-05T08:10:02.428Z,12.02
2017-09-05T08:12:30.232Z,10.77
2017-09-05T08:14:57.772Z,11.35
2017-09-05T08:17:25.337Z,14.23
2017-09-05T08:19:52.856Z,18.17
2017-09-05T08:22:20.369Z,18.23
2017-09-05T08:24:48.928Z,17.02
2017-09-05T08:27:16.484Z,15.00
2017-09-05T08:29:44.000Z,11.85
2017-09-05T08:32:11.499Z,9.10
2017-09-05T08:34:39.126Z,12.50
2017-09-05T08:37:06.652Z,10.47
2017-09-05T08:39:34.166Z,11.00
2017-09-05T08:42:02.080Z,9.43
2017-09-05T08:44:29.739Z,13.73
2017-09-05T08:46:57.235Z,9.87
2017-09-05T08:49:24.766Z,11.00
2017-09-05T08:51:52.284Z,8.97
2017-09-05T08:54:19.940Z,9.60
2017-09-05T08:56:47.461Z,12.70
2017-09-05T08:59:15.593Z,11.20
2017-09-05T09:01:43.099Z,8.27
2017-09-05T09:04:10.595Z,8.73
2017-09-05T09:06:38.439Z,8.00
2017-09-05T09:09:05.953Z,13.30
2017-09-05T09:11:33.459Z,10.80
2017-09-05T09:14:00.967Z,13.90
2017-09-05T09:16:29.227Z,9.20
2017-09-05T09:18:56.805Z,10.07
2017-09-05T09:21:24.328Z,9.40
2017-09-05T09:23:51.824Z,7.40
2017-09-05T09:26:19.358Z,9.10
2017-09-05T09:28:47.465Z,8.70
2017-09-05T09:31:15.014Z,10.50
2017-09-05T09:33:42.679Z,10.82
2017-09-05T09:36:10.183Z,9.37
2017-09-05T09:38:37.732Z,9.33
2017-09-05T09:41:05.228Z,7.60
2017-09-05T09:43:32.784Z,8.10
2017-09-05T09:46:00.460Z,7.00
2017-09-05T09:48:27.991Z,8.73
2017-09-05T09:50:56.170Z,10.88
2017-09-05T09:53:23.666Z,9.40
2017-09-05T09:55:51.239Z,8.77
2017-09-05T09:58:18.739Z,8.30
2017-09-05T10:00:46.256Z,12.30
2017-09-05T10:03:13.790Z,6.83
2017-09-05T10:05:41.339Z,8.90
2017-09-05T10:08:08.883Z,7.20
2017-09-05T10:10:36.908Z,8.47
2017-09-05T10:13:04.431Z,7.43
2017-09-05T10:15:31.977Z,6.83
2017-09-05T10:17:59.542Z,8.13
2017-09-05T10:20:27.047Z,7.20
2017-09-05T10:22:54.557Z,14.50
2017-09-05T10:25:22.096Z,8.53
2017-09-05T10:27:49.591Z,8.03
2017-09-05T10:30:22.140Z,7.93
2017-09-05T10:32:50.108Z,8.87
2017-09-05T10:35:18.294Z,9.75
2017-09-05T10:37:45.805Z,7.22
2017-09-05T10:40:13.335Z,5.73
2017-09-05T10:42:40.872Z,12.50
2017-09-05T10:45:08.429Z,8.13
2017-09-05T10:47:35.993Z,6.60
2017-09-05T10:50:03.491Z,4.67
2017-09-05T10:52:30.999Z,4.57
2017-09-05T10:54:59.203Z,6.60
2017-09-05T10:57:26.839Z,7.47
2017-09-05T10:59:54.675Z,10.45
2017-09-05T11:02:22.455Z,5.05
2017-09-05T11:04:49.965Z,4.20
2017-09-05T11:07:17.456Z,6.07
2017-09-05T11:09:46.376Z,4.30
2017-09-05T11:12:14.039Z,5.13
2017-09-05T11:14:46.220Z,4.57
2017-09-05T11:17:13.760Z,13.17
2017-09-05T11:19:41.456Z,3.63
2017-09-05T11:22:09.051Z,4.83
2017-09-05T11:24:36.648Z,4.10
2017-09-05T11:27:04.400Z,3.45
2017-09-05T11:29:31.902Z,5.80
2017-09-05T11:32:00.811Z,5.37
2017-09-05T11:34:28.320Z,5.10
2017-09-05T11:36:55.819Z,5.30
2017-09-05T11:39:23.355Z,4.70
2017-09-05T11:41:51.542Z,4.97
2017-09-05T11:44:21.833Z,4.37
2017-09-05T11:46:50.161Z,6.20
2017-09-05T11:49:17.720Z,4.20
2017-09-05T11:51:45.237Z,6.23
2017-09-05T11:54:12.836Z,4.30
2017-09-05T11:56:40.348Z,5.15
2017-09-05T11:59:10.874Z,4.72
2017-09-05T12:01:39.973Z,5.45
2017-09-05T12:04:07.505Z,5.20
2017-09-05T12:06:35.027Z,6.28
2017-09-05T12:09:04.163Z,8.23
2017-09-05T12:11:31.955Z,5.80
2017-09-05T12:13:59.612Z,6.77
2017-09-05T12:16:27.115Z,4.67
2017-09-05T12:18:54.838Z,8.10
2017-09-05T12:21:22.728Z,5.68
2017-09-05T12:23:50.239Z,6.33
2017-09-05T12:26:17.813Z,3.85
2017-09-05T12:28:45.320Z,6.10
2017-09-05T12:31:13.027Z,3.85
2017-09-05T12:33:40.787Z,7.87
2017-09-05T12:36:08.528Z,6.30
2017-09-05T12:38:36.629Z,2.75
2017-09-05T12:41:04.380Z,4.15
2017-09-05T12:43:31.951Z,2.70
2017-09-05T12:45:59.448Z,3.40
2017-09-05T12:48:27.000Z,3.00
2017-09-05T12:50:55.224Z,4.82
2017-09-05T12:53:22.735Z,5.90
2017-09-05T12:55:50.356Z,5.30
2017-09-05T12:58:18.106Z,4.70
2017-09-05T13:00:45.617Z,2.57
2017-09-05T13:03:13.169Z,3.10
2017-09-05T13:05:40.840Z,3.80
2017-09-05T13:08:09.477Z,5.10
2017-09-05T13:10:37.095Z,5.78
2017-09-05T13:13:05.649Z,4.97
2017-09-05T13:15:33.628Z,3.12
2017-09-05T13:18:01.174Z,6.03
2017-09-05T13:20:28.679Z,3.67
2017-09-05T13:22:56.176Z,6.10
2017-09-05T13:25:24.443Z,4.23
2017-09-05T13:27:52.916Z,5.43
2017-09-05T13:30:20.452Z,3.73
2017-09-05T13:32:48.105Z,4.22
2017-09-05T13:35:15.635Z,3.95
2017-09-05T13:37:43.163Z,4.97
2017-09-05T13:40:10.707Z,4.40
2017-09-05T13:42:38.266Z,8.63
2017-09-05T13:45:07.152Z,3.25
2017-09-05T13:47:34.697Z,2.70
2017-09-05T13:50:02.204Z,6.33
2017-09-05T13:52:29.887Z,4.82
2017-09-05T13:54:57.656Z,3.13
2017-09-05T13:57:26.643Z,3.05
2017-09-05T13:59:54.244Z,2.70
2017-09-05T14:02:21.751Z,3.17
2017-09-05T14:04:49.293Z,4.10
2017-09-05T14:07:16.834Z,4.12
2017-09-05T14:09:45.147Z,3.50
2017-09-05T14:12:12.653Z,3.30
2017-09-05T14:14:40.931Z,3.63
2017-09-05T14:17:08.496Z,3.80
2017-09-05T14:19:36.003Z,3.03
2017-09-05T14:22:04.269Z,4.07
2017-09-05T14:24:31.829Z,4.67
2017-09-05T14:26:59.348Z,2.60
2017-09-05T14:29:27.050Z,6.40
2017-09-05T14:31:54.539Z,5.83
2017-09-05T14:34:22.171Z,3.15
2017-09-05T14:36:49.667Z,18.70
2017-09-05T14:39:18.004Z,4.10
2017-09-05T14:41:45.509Z,3.70
2017-09-05T14:44:13.011Z,14.90
2017-09-05T14:46:40.857Z,5.57
2017-09-05T14:49:08.367Z,5.93
2017-09-05T14:51:35.867Z,11.13
2017-09-05T14:54:03.380Z,4.93
2017-09-05T14:56:31.132Z,4.95
2017-09-05T14:58:58.884Z,7.80
2017-09-05T15:01:26.392Z,5.17
2017-09-05T15:03:54.213Z,5.60
2017-09-05T15:06:21.719Z,5.53
2017-09-05T15:08:49.288Z,4.00
2017-09-05T15:11:17.116Z,7.97
2017-09-05T15:13:45.831Z,5.45
2017-09-05T15:16:13.372Z,6.73
2017-09-05T15:18:40.923Z,5.70
2017-09-05T15:21:08.649Z,4.78
2017-09-05T15:23:36.143Z,7.97
2017-09-05T15:26:04.907Z,3.60
2017-09-05T15:28:32.412Z,5.28
2017-09-05T15:30:59.999Z,6.53
2017-09-05T15:33:27.603Z,9.63
2017-09-05T15:35:55.115Z,6.30
2017-09-05T15:38:23.332Z,6.62
2017-09-05T15:40:50.853Z,5.03
2017-09-05T15:43:18.352Z,5.10
2017-09-05T15:45:45.894Z,3.87
2017-09-05T15:48:16.199Z,4.00
2017-09-05T15:50:44.032Z,6.90
2017-09-05T15:53:11.548Z,4.90
2017-09-05T15:55:39.074Z,3.80
2017-09-05T15:58:07.177Z,4.40
2017-09-05T16:00:35.194Z,3.00
2017-09-05T16:03:02.706Z,5.05
2017-09-05T16:05:33.139Z,3.77
2017-09-05T16:08:00.712Z,13.73
2017-09-05T16:10:28.344Z,2.87
2017-09-05T16:12:56.600Z,2.66
2017-09-05T16:15:24.188Z,5.00
2017-09-05T16:17:51.753Z,4.40
2017-09-05T16:20:19.308Z,9.80
2017-09-05T16:22:46.823Z,8.63
2017-09-05T16:25:14.327Z,4.93
2017-09-05T16:27:41.892Z,6.30
2017-09-05T16:30:10.145Z,4.73
2017-09-05T16:32:37.923Z,3.37
2017-09-05T16:35:05.492Z,4.03
2017-09-05T16:37:33.003Z,5.17
2017-09-05T16:40:00.567Z,5.07
2017-09-05T16:42:28.140Z,8.63
2017-09-05T16:44:56.099Z,7.15
2017-09-05T16:47:23.855Z,5.80
2017-09-05T16:49:51.401Z,5.43
2017-09-05T16:52:18.936Z,5.70
2017-09-05T16:54:46.439Z,5.03
2017-09-05T16:57:14.183Z,9.67
2017-09-05T16:59:42.707Z,6.37
2017-09-05T17:02:10.310Z,7.03
2017-09-05T17:04:37.872Z,9.83
2017-09-05T17:07:05.480Z,5.05
2017-09-05T17:09:33.100Z,6.82
2017-09-05T17:12:00.971Z,7.50
2017-09-05T17:14:28.601Z,7.20
2017-09-05T17:16:56.713Z,5.07
2017-09-05T17:19:28.568Z,5.65
2017-09-05T17:21:56.351Z,7.60
2017-09-05T17:24:24.748Z,6.70
2017-09-05T17:26:52.308Z,6.47
2017-09-05T17:29:19.918Z,14.30
2017-09-05T17:31:47.671Z,5.35
2017-09-05T17:34:15.993Z,6.18
2017-09-05T17:36:48.983Z,5.13
2017-09-05T17:39:16.572Z,6.60
2017-09-05T17:41:44.662Z,6.40
2017-09-05T17:44:12.361Z,4.70
2017-09-05T17:46:41.556Z,7.67
2017-09-05T17:49:09.059Z,8.50
2017-09-05T17:51:36.840Z,10.43
2017-09-05T17:54:04.348Z,5.87
2017-09-05T17:56:31.947Z,8.17
2017-09-05T17:59:00.474Z,5.97
2017-09-05T18:01:28.314Z,6.23
2017-09-05T18:03:56.002Z,11.30
2017-09-05T18:06:28.087Z,7.25
2017-09-05T18:08:56.826Z,6.47
2017-09-05T18:11:25.265Z,7.53
2017-09-05T18:13:52.836Z,10.47
2017-09-05T18:16:20.734Z,6.60
2017-09-05T18:18:48.803Z,11.05
2017-09-05T18:21:16.709Z,7.47
2017-09-05T18:23:44.947Z,4.85
2017-09-05T18:26:12.730Z,10.73
2017-09-05T18:28:40.709Z,5.93
2017-09-05T18:31:09.472Z,9.95
2017-09-05T18:33:37.036Z,7.78
2017-09-05T18:36:07.408Z,7.95
2017-09-05T18:38:34.990Z,9.07
2017-09-05T18:41:03.199Z,6.85
2017-09-05T18:43:31.053Z,6.47
2017-09-05T18:45:59.127Z,7.68
2017-09-05T18:48:26.763Z,4.83
2017-09-05T18:50:57.998Z,8.07
2017-09-05T18:53:26.105Z,5.70
2017-09-05T18:55:54.177Z,8.77
2017-09-05T18:58:22.248Z,7.20
2017-09-05T19:00:49.916Z,7.50
2017-09-05T19:03:17.664Z,8.93
2017-09-05T19:05:45.540Z,5.30
2017-09-05T19:08:13.613Z,6.93
2017-09-05T19:10:41.176Z,7.77
2017-09-05T19:13:08.793Z,10.80
2017-09-05T19:15:37.420Z,8.50
2017-09-05T19:18:05.028Z,6.45
2017-09-05T19:20:32.740Z,11.10
2017-09-05T19:23:00.336Z,8.32
2017-09-05T19:25:28.785Z,7.53
2017-09-05T19:27:57.032Z,6.12
2017-09-05T19:30:25.950Z,8.32
2017-09-05T19:32:53.496Z,6.17
2017-09-05T19:35:21.534Z,9.90
2017-09-05T19:37:49.554Z,7.90
2017-09-05T19:40:17.628Z,8.77
2017-09-05T19:42:46.626Z,7.40
2017-09-05T19:45:14.131Z,5.50
2017-09-05T19:47:42.144Z,5.47
2017-09-05T19:50:09.670Z,6.90
2017-09-05T19:52:37.233Z,9.50
2017-09-05T19:55:05.651Z,11.30
2017-09-05T19:57:33.690Z,6.07
2017-09-05T20:00:01.261Z,6.20
2017-09-05T20:02:29.031Z,12.43
2017-09-05T20:04:56.676Z,9.90
2017-09-05T20:07:24.851Z,8.25
2017-09-05T20:09:52.411Z,10.10
2017-09-05T20:12:19.956Z,6.93
2017-09-05T20:14:47.852Z,5.87
2017-09-05T20:17:15.436Z,7.07
2017-09-05T20:19:44.533Z,8.80
2017-09-05T20:22:12.629Z,7.80
2017-09-05T20:24:40.228Z,6.80
2017-09-05T20:27:08.333Z,7.20
2017-09-05T20:29:35.900Z,7.33
2017-09-05T20:32:03.431Z,11.27
2017-09-05T20:34:31.024Z,8.87
2017-09-05T20:36:58.958Z,7.40
2017-09-05T20:39:26.600Z,9.30
2017-09-05T20:41:56.815Z,11.57
2017-09-05T20:44:24.381Z,5.03
2017-09-05T20:46:52.084Z,8.50
2017-09-05T20:49:19.775Z,9.50
2017-09-05T20:51:47.283Z,8.23
2017-09-05T20:54:14.905Z,6.45
2017-09-05T20:56:45.908Z,5.83
2017-09-05T20:59:13.476Z,6.57
2017-09-05T21:01:41.677Z,7.70
2017-09-05T21:04:09.241Z,6.73
2017-09-05T21:06:36.851Z,12.03
2017-09-05T21:09:04.423Z,7.27
2017-09-05T21:11:43.000Z,7.03
2017-09-05T21:14:10.729Z,6.87
2017-09-05T21:16:38.296Z,6.83
2017-09-05T21:19:06.123Z,7.45
2017-09-05T21:21:33.951Z,7.65
2017-09-05T21:24:01.999Z,7.28
2017-09-05T21:26:29.502Z,7.00
2017-09-05T21:28:57.029Z,10.87
2017-09-05T21:31:24.851Z,6.67
2017-09-05T21:33:52.422Z,9.93
2017-09-05T21:36:20.694Z,6.25
2017-09-05T21:38:48.249Z,6.27
2017-09-05T21:41:15.826Z,6.23
2017-09-05T21:43:43.782Z,8.77
2017-09-05T21:46:11.487Z,8.45
2017-09-05T21:48:39.924Z,8.07
2017-09-05T21:51:07.431Z,7.23
2017-09-05T21:53:35.105Z,10.97
2017-09-05T21:56:02.619Z,6.97
2017-09-05T21:58:30.936Z,8.00
2017-09-05T22:00:59.493Z,6.45
2017-09-05T22:03:27.017Z,7.20
2017-09-05T22:05:54.623Z,6.35
2017-09-05T22:08:22.633Z,7.22
2017-09-05T22:10:50.186Z,6.97
2017-09-05T22:13:18.321Z,7.50
2017-09-05T22:15:45.923Z,8.23
2017-09-05T22:18:13.463Z,7.00
2017-09-05T22:20:46.609Z,9.13
2017-09-05T22:23:14.160Z,11.30
2017-09-05T22:25:50.252Z,8.00
2017-09-05T22:28:23.659Z,5.87
2017-09-05T22:30:51.243Z,9.33
2017-09-05T22:33:18.744Z,5.83
2017-09-05T22:35:46.458Z,10.60
2017-09-05T22:38:14.917Z,11.47
2017-09-05T22:40:42.423Z,6.05
2017-09-05T22:43:09.983Z,12.07
2017-09-05T22:45:37.510Z,6.60
2017-09-05T22:48:05.037Z,9.20
2017-09-05T22:50:32.802Z,7.87
2017-09-05T22:53:00.561Z,6.20
2017-09-05T22:55:36.013Z,7.57
2017-09-05T22:58:03.517Z,9.30
2017-09-05T23:00:31.032Z,6.72
2017-09-05T23:02:59.309Z,7.05
2017-09-05T23:05:27.020Z,9.00
2017-09-05T23:07:54.545Z,8.73
2017-09-05T23:10:22.060Z,10.57
2017-09-05T23:12:50.361Z,6.47
2017-09-05T23:15:18.132Z,8.10
2017-09-05T23:17:45.632Z,7.68
2017-09-05T23:20:13.168Z,7.40
2017-09-05T23:22:40.675Z,8.10
2017-09-05T23:25:08.171Z,7.35
2017-09-05T23:27:35.671Z,6.23
2017-09-05T23:30:03.279Z,8.20
2017-09-05T23:32:30.799Z,6.00
2017-09-05T23:34:58.304Z,9.25
2017-09-05T23:37:26.468Z,9.88
2017-09-05T23:39:53.967Z,10.13
2017-09-05T23:42:21.474Z,8.65
2017-09-05T23:44:48.989Z,14.27
2017-09-05T23:47:16.524Z,11.43
2017-09-05T23:49:44.027Z,6.90
2017-09-05T23:52:11.530Z,6.20
2017-09-05T23:54:39.280Z,9.30
2017-09-05T23:57:06.783Z,7.37
2017-09-05T23:59:34.787Z,10.20
